Olympic National Park, WA

08:08 AM PDT am 30. Oktober 2014 (GMT -0700)
Lake Dawn | Change Station
CLOSE
Current Station
Persönliche Wetterstationen
Location: Port Angeles, WA
Höhe: 1864 ft
Wetterstationen in der Umgebung
aktive Warnung: Areal Flood Watch

Höhe 1864 ft 48.04 °N, 123.43 °W | Updated 8 minutes ago

Bedeckt
Bedeckt
46.9 °F
gefühlte 45 °F
N
3.8
Wind Wechselnd Wind aus Nordwest
Gusts 3.8 mph

Heute
Max. -- | schwach -- °F
--% Regenrisiko
Gestern
Max. -- | schwach -- °F
Precip. -- inch
7:56 AM 5:58 PM
Erstes Viertel, 44% visible
Druck 29.80 inch
Sichtweite 10.0 Meilen
Wolken Teils Wolkig 600 ft
Wolkig 6000 ft
Bedeckt 7500 ft
Windchill 45 °F
Taupunkt 47 °F
Feuchtigkeit 99%
Regen 0.00 inch
Schneehöhe Nicht verfügbar..
UV 0 von 12
Pollen .30 von 12
Luftqualität Nicht verfügbar..
Flu Activity Nicht verfügbar..
METAR KCLM 301453Z AUTO 24004KT 10SM SCT006 BKN060 OVC075 10/08 A2980 RMK AO2 SLP091 T01000083 56035 $

More Conditions Fewer Conditions

Druck 29.80 inch
Sichtweite 10.0 Meilen
Wolken Teils Wolkig 600 ft
Wolkig 6000 ft
Bedeckt 7500 ft
Windchill 45 °F
Taupunkt 47 °F
Feuchtigkeit 99%
Regen 0.00 inch
Schneehöhe Nicht verfügbar..
UV 0 von 12
Pollen .30 von 12
Luftqualität Nicht verfügbar..
Flu Activity Nicht verfügbar..
METAR KCLM 301453Z AUTO 24004KT 10SM SCT006 BKN060 OVC075 10/08 A2980 RMK AO2 SLP091 T01000083 56035 $

More Conditions Fewer Conditions

10-Day Weather Forecast

Almanac

Astronomie

Oct. 30, 2014 Aufgang Untergang
Genaue Zeit
Bürgerliche Dämmerung
Nautische Dämmerung
Astronomische Dämmerung
Mond
Länge des sichtbaren Lichts
Tageslänge
Tomorrow will be .
, % of the Moon is Illuminated

Heutige Rekorde

State Highs State Lows

Community

WunderPhotos

Upload Photos

1,766,387 Fotos hochgeladen!

WunderBlogs® & News

Nearby

Luftqualität

  Luftqualität LQ Index Schadstoff
Not available.

Schneehöhe

Station Depth Höhe

Erdbebenaktivität

Stadt Distance Mag. Time & Date
Minimum magnitude displayed is 2.5.

küstennahe Wassertemperaturen

Ort Temperatur

Wetterstationen in der Umgebung